M I D A S
Marine Information and Data Acquisition System
Tripno 229 of the Zeeleeuw from 2002-03-25 07:38:32 to 2002-03-25 15:12:41
Back to CruiseResearch ActivitiesStationsMapUnderway DataData graphs

EquipmentUnitsComment
TimeDGPSUTC
LatitudeDGPSDM.mWGS84
LongitudeDGPSDM.mWGS84
TemperatureSBE03/SBE38deg celciusITS90
ConductivitySBE21S/mITS90
SalinitySBE21 Practical Salinity Units
ChlorophylAChelsea fluorimeterg/lCalibrated in Aceton
Missing or incorrect values are displayed as -999
Sea surface data collected by the RV Zeeleeuw from 2002-03-25 07:38:32 to 2002-03-25 15:12:41
Time Latitude Longitude Temperature Conductivity Salinity ChlorophylA
2002-03-25 07:39:35 51°13.781 2°55.677 15.289269 0.0782 0.413348  
2002-03-25 07:40:36 51°13.921 2°55.563 15.255646 0.0782 0.413462  
2002-03-25 07:41:36 51°14.07 2°55.457 15.194292 0.0782 0.4135  
2002-03-25 07:42:35 51°14.209 2°55.333 15.173249 0.0782 0.41352  
2002-03-25 07:43:35 51°14.321 2°55.149 15.198456 0.0782 0.413564  
2002-03-25 07:44:35 51°14.461 2°54.974 15.26479 0.078101 0.413069  
2002-03-25 07:45:35 51°14.627 2°54.804 15.219534 0.078101 0.413126  
2002-03-25 07:46:36 51°14.79 2°54.603 15.221138 0.078101 0.413081  
2002-03-25 07:47:35 51°14.956 2°54.397 15.228032 0.078101 0.413113  
2002-03-25 07:48:35 51°15.145 2°54.201 15.176113 0.078101 0.413361  
2002-03-25 07:49:35 51°15.348 2°54.029 15.14786 0.078101 0.413107  
2002-03-25 07:50:35 51°15.545 2°53.846 15.130147 0.078101 0.413387  
2002-03-25 07:51:35 51°15.745 2°53.669 15.193164 0.078101 0.41324  
2002-03-25 07:52:36 51°15.952 2°53.497 13.957192 0.078101 0.413349  
2002-03-25 07:53:35 51°16.15 2°53.328 9.159314 3.367142 29.250033  
2002-03-25 07:54:36 51°16.361 2°53.168 8.980184 3.431773 31.394354  
2002-03-25 07:55:35 51°16.565 2°53.021 8.901954 3.375879 31.025833  
2002-03-25 07:56:36 51°16.773 2°52.868 8.862732 3.421859 31.602663  
2002-03-25 07:57:36 51°16.976 2°52.72 8.810112 3.426368 31.702035  
2002-03-25 07:58:35 51°17.179 2°52.573 8.832607 3.427971 31.756503  
2002-03-25 07:59:36 51°17.388 2°52.418 8.83552 3.432379 31.832636  
2002-03-25 08:00:35 51°17.532 2°52.174 10.059715 3.433982 31.88003  
2002-03-25 08:01:35 51°17.649 2°51.875 9.603829 3.438991 31.945663  
2002-03-25 08:02:35 51°17.766 2°51.575 9.356994 3.448408 32.047954  
2002-03-25 08:03:36 51°17.885 2°51.27 9.654913 3.453518 32.119971  
2002-03-25 08:04:36 51°18.002 2°50.968 9.648595 3.456423 32.162616  
2002-03-25 08:05:36 51°18.121 2°50.667 9.972593 3.453418 32.146451  
2002-03-25 08:06:35 51°18.235 2°50.367 9.841269 3.454921 32.179117  
2002-03-25 08:07:36 51°18.356 2°50.058 9.400368 3.447908 32.126718  
2002-03-25 08:08:35 51°18.473 2°49.76 9.506455 3.446206 32.123999  
2002-03-25 08:09:35 51°18.592 2°49.457 9.778567 3.438993 32.067231  
2002-03-25 08:10:35 51°18.709 2°49.157 9.359599 3.424468 31.951801  
2002-03-25 08:11:35 51°18.833 2°48.865 9.462726 3.436189 32.091089  
2002-03-25 08:12:35 51°18.955 2°48.571 9.951898 3.457426 32.284312  
2002-03-25 08:13:34 51°19.069 2°48.274 9.478756 3.469147 32.398326  
2002-03-25 08:14:36 51°19.183 2°47.956 9.296857 3.471351 32.424948  
2002-03-25 08:15:36 51°19.328 2°47.679 9.379253 3.472754 32.428949  
2002-03-25 08:16:35 51°19.466 2°47.398 9.197264 3.477663 32.476086  
2002-03-25 08:17:35 51°19.607 2°47.113 9.621852 3.474557 32.43635  
2002-03-25 08:18:36 51°19.752 2°46.826 9.479229 3.477362 32.466184  
2002-03-25 08:19:35 51°19.89 2°46.547 9.592409 3.484876 32.535791  
2002-03-25 08:20:35 51°20.025 2°46.27 9.372529 3.484475 32.538432  
2002-03-25 08:21:34 51°20.101 2°45.961 9.666276 3.532565 33.018531  
2002-03-25 08:22:34 51°20.143 2°45.627 9.860261 3.547793 33.161379  
2002-03-25 08:23:35 51°20.199 2°45.287 8.696083 3.549897 33.18247  
2002-03-25 08:24:35 51°20.251 2°44.95 8.734258 3.550098 33.187631  
2002-03-25 08:25:35 51°20.305 2°44.612 8.689383 3.548294 33.168123  
2002-03-25 08:26:35 51°20.361 2°44.272 8.688569 3.550298 33.192023  
2002-03-25 08:27:35 51°20.415 2°43.932 8.681582 3.549397 33.186502  
2002-03-25 08:28:35 51°20.472 2°43.594 8.671625 3.548796 33.187184  
2002-03-25 08:29:35 51°20.52 2°43.255 8.721392 3.546892 33.182027  
2002-03-25 08:30:35 51°20.564 2°42.914 8.744349 3.549698 33.227401  
2002-03-25 08:31:35 51°20.6 2°42.575 8.722062 3.568133 33.396799  
2002-03-25 08:32:35 51°20.634 2°42.239 8.880437 3.575046 33.459432  
2002-03-25 08:33:35 51°20.669 2°41.905 8.684453 3.57695 33.480021  
2002-03-25 08:34:34 51°20.704 2°41.575 8.802086 3.580156 33.51106  
2002-03-25 08:35:34 51°20.741 2°41.238 8.682587 3.578353 33.493066  
2002-03-25 08:36:34 51°20.775 2°40.898 8.677992 3.579856 33.509487  
2002-03-25 08:37:35 51°20.797 2°40.55 8.706658 3.581159 33.530827  
2002-03-25 08:38:34 51°20.821 2°40.212 8.699911 3.584666 33.575137  
2002-03-25 08:39:35 51°20.845 2°39.862 8.656448 3.585267 33.586858  
2002-03-25 08:40:34 51°20.868 2°39.523 9.746887 3.585768 33.594418  
2002-03-25 08:41:35 51°20.892 2°39.174 9.1337 3.587271 33.607736  
2002-03-25 08:42:34 51°20.915 2°38.84 9.926172 3.590176 33.626298  
2002-03-25 08:43:35 51°20.939 2°38.494 9.428148 3.593182 33.646675  
2002-03-25 08:44:35 51°20.962 2°38.157 9.284434 3.593583 33.646944  
2002-03-25 08:45:35 51°20.986 2°37.821 9.297236 3.593583 33.635237  
2002-03-25 08:46:35 51°21.132 2°37.602 9.762093 3.596388 33.650394  
2002-03-25 08:47:35 51°21.363 2°37.595 9.212647 3.596789 33.656125  
2002-03-25 08:48:35 51°21.598 2°37.576 9.773578 3.596689 33.666792  
2002-03-25 08:49:35 51°21.829 2°37.529 9.877132 3.595888 33.673288  
2002-03-25 08:50:35 51°22.061 2°37.481 9.268973 3.596188 33.681891  
2002-03-25 08:51:35 51°22.293 2°37.42 9.356947 3.59739 33.684252  
2002-03-25 08:52:35 51°22.516 2°37.325 9.582355 3.598693 33.693127  
2002-03-25 08:53:34 51°22.689 2°37.115 9.489393 3.598192 33.698074  
2002-03-25 08:54:34 51°22.812 2°36.83 9.792354 3.599495 33.721817  
2002-03-25 08:55:34 51°22.909 2°36.52 9.717123 3.601599 33.746094  
2002-03-25 08:56:35 51°22.978 2°36.19 9.674101 3.601599 33.746878  
2002-03-25 08:57:35 51°23.009 2°35.852 9.313496 3.600397 33.739831  
2002-03-25 08:58:34 51°23.027 2°35.518 9.593494 3.599395 33.739573  
2002-03-25 08:59:34 51°23.046 2°35.179 9.833558 3.600597 33.743487  
2002-03-25 09:00:35 51°23.067 2°34.835 8.994571 3.6022 33.748442  
2002-03-25 09:01:35 51°23.088 2°34.496 10.049733 3.604404 33.760443  
2002-03-25 09:02:35 51°23.108 2°34.158 9.825893 3.606008 33.770093  
2002-03-25 09:03:35 51°23.109 2°33.821 9.759174 3.60711 33.772956  
2002-03-25 09:04:35 51°23.104 2°33.486 8.830554 3.608212 33.777384  
2002-03-25 09:05:35 51°23.094 2°33.153 8.78651 3.608312 33.782345  
2002-03-25 09:06:35 51°23.085 2°32.821 8.710198 3.607911 33.778171  
2002-03-25 09:07:34 51°23.076 2°32.496 8.706562 3.610016 33.803222  
2002-03-25 09:08:34 51°23.067 2°32.166 8.790858 3.610216 33.803741  
2002-03-25 09:09:35 51°23.058 2°31.832 8.790954 3.611218 33.811825  
2002-03-25 09:10:35 51°23.05 2°31.503 8.711825 3.611719 33.817044  
2002-03-25 09:11:36 51°23.04 2°31.169 8.796735 3.61242 33.823565  
2002-03-25 09:12:34 51°23.03 2°30.849 8.836905 3.615526 33.848856  
2002-03-25 09:13:35 51°23.02 2°30.511 8.763903 3.61743 33.86633  
2002-03-25 09:14:34 51°23.008 2°30.186 8.769735 3.619334 33.881446  
2002-03-25 09:15:35 51°22.991 2°29.85 8.732967 3.61733 33.855867  
2002-03-25 09:16:34 51°22.973 2°29.525 8.76983 3.620035 33.884824  
2002-03-25 09:17:34 51°22.945 2°29.198 8.736745 3.619835 33.880381  
2002-03-25 09:18:35 51°22.908 2°28.869 8.853901 3.619935 33.879069  
2002-03-25 09:19:34 51°22.874 2°28.549 8.775327 3.621037 33.890546  
2002-03-25 09:20:35 51°22.84 2°28.217 8.743297 3.621438 33.892363  
2002-03-25 09:21:35 51°22.813 2°27.89 9.918471 3.622139 33.891812  
2002-03-25 09:22:35 51°22.788 2°27.564 9.613172 3.623542 33.897778  
2002-03-25 09:23:34 51°22.761 2°27.242 9.411207 3.624143 33.908747  
2002-03-25 09:24:35 51°22.733 2°26.91 9.194083 3.624745 33.915792  
2002-03-25 09:25:34 51°22.71 2°26.587 9.549021 3.62745 33.928239  
2002-03-25 09:26:35 51°22.733 2°26.254 9.71114 3.628853 33.936552  
2002-03-25 09:27:34 51°22.889 2°26.03 9.750041 3.630356 33.94512  
2002-03-25 09:28:34 51°23.101 2°25.91 9.757009 3.631358 33.953974  
2002-03-25 09:29:35 51°23.303 2°25.734 10.038766 3.632059 33.954199  
2002-03-25 09:30:34 51°23.534 2°25.687 9.592409 3.633762 33.958562  
2002-03-25 09:31:35 51°23.78 2°25.743 10.185644 3.636067 33.965247  
2002-03-25 09:32:35 51°24.023 2°25.761 9.768965 3.637971 33.974828  
2002-03-25 09:33:34 51°24.261 2°25.794 10.003507 3.639975 33.987017  
2002-03-25 09:34:34 51°24.503 2°25.834 10.0465 3.641678 34.002361  
2002-03-25 09:35:35 51°24.749 2°25.874 9.746322 3.64258 34.010946  
2002-03-25 09:36:34 51°24.988 2°25.911 9.714862 3.644083 34.015564  
2002-03-25 09:37:35 51°25.236 2°25.958 9.368882 3.644985 34.021004  
2002-03-25 09:38:34 51°25.475 2°26.004 10.145223 3.646287 34.031393  
2002-03-25 09:39:35 51°25.72 2°26.053 9.682679 3.648291 34.048279  
2002-03-25 09:40:35 51°25.961 2°26.097 9.901281 3.648792 34.053483  
2002-03-25 09:41:34 51°26.197 2°26.154 9.264799 3.64769 34.051467  
2002-03-25 09:42:35 51°26.439 2°26.213 10.029109 3.651798 34.065051  
2002-03-25 09:43:34 51°26.674 2°26.272 9.933825 3.647089 34.027936  
2002-03-25 09:44:35 51°26.917 2°26.333 9.564227 3.643581 33.988385  
2002-03-25 09:45:35 51°27.157 2°26.393 8.865357 3.645385 34.02124  
2002-03-25 09:46:35 51°27.399 2°26.453 8.986663 3.647289 34.038658  
2002-03-25 09:47:35 51°27.64 2°26.51 8.923654 3.649794 34.057602  
2002-03-25 09:48:35 51°27.884 2°26.568 8.962744 3.651698 34.068726  
2002-03-25 09:49:35 51°28.126 2°26.625 9.006954 3.6528 34.079385  
2002-03-25 09:50:35 51°28.367 2°26.7 8.889789 3.653702 34.083246  
2002-03-25 09:51:35 51°28.595 2°26.781 8.889741 3.653903 34.089258  
2002-03-25 09:52:35 51°28.745 2°26.786 8.895753 3.654804 34.096263  
2002-03-25 09:53:35 51°28.818 2°26.783 8.97723 3.655806 34.103521  
2002-03-25 09:54:36 51°28.834 2°26.813 8.887165 3.655806 34.103521  
2002-03-25 09:55:35 51°28.853 2°26.839 9.003811 3.655907 34.109282  
2002-03-25 09:56:36 51°28.873 2°26.864 9.082441 3.655606 34.107734  
2002-03-25 09:57:35 51°28.894 2°26.885 8.965985 3.655606 34.106947  
2002-03-25 09:58:34 51°28.915 2°26.904 8.887737 3.656007 34.110323  
2002-03-25 09:59:35 51°28.938 2°26.911 8.889455 3.656207 34.111617  
2002-03-25 10:00:35 51°29.022 2°26.72 9.013907 3.656608 34.113418  
2002-03-25 10:01:34 51°29.188 2°26.487 8.89642 3.657309 34.112046  
2002-03-25 10:02:35 51°29.397 2°26.312 9.944106 3.658913 34.124756  
2002-03-25 10:03:35 51°29.61 2°26.162 9.671886 3.659414 34.132318  
2002-03-25 10:04:35 51°29.826 2°26.019 10.426944 3.659013 34.135242  
2002-03-25 10:05:35 51°30.045 2°25.88 9.582544 3.658612 34.138954  
2002-03-25 10:06:35 51°30.26 2°25.736 9.594202 3.658412 34.135298  
2002-03-25 10:07:34 51°30.475 2°25.599 10.045562 3.658612 34.134229  
2002-03-25 10:08:35 51°30.698 2°25.459 9.860684 3.658211 34.129279  
2002-03-25 10:09:35 51°30.916 2°25.317 9.828809 3.658913 34.132627  
2002-03-25 10:10:35 51°31.135 2°25.18 9.677589 3.660416 34.138785  
2002-03-25 10:11:35 51°31.353 2°25.041 9.829279 3.660716 34.145843  
2002-03-25 10:12:35 51°31.571 2°24.901 9.828103 3.660716 34.145843  
2002-03-25 10:13:35 51°31.788 2°24.76 9.664909 3.660616 34.149527  
2002-03-25 10:14:35 51°32.004 2°24.618 9.816393 3.660516 34.154001  
2002-03-25 10:15:35 51°32.221 2°24.478 9.883006 3.660416 34.1569  
2002-03-25 10:16:35 51°32.437 2°24.334 9.726166 3.659915 34.158001  
2002-03-25 10:17:35 51°32.654 2°24.194 9.947157 3.660015 34.162983  
2002-03-25 10:18:35 51°32.869 2°24.049 9.715804 3.659915 34.166674  
2002-03-25 10:19:34 51°33.084 2°23.917 9.836802 3.660116 34.170333  
2002-03-25 10:20:35 51°33.306 2°23.777 10.125612 3.661418 34.175982  
2002-03-25 10:21:35 51°33.528 2°23.648 9.802987 3.664524 34.183804  
2002-03-25 10:22:34 51°33.761 2°23.595 9.853633 3.666729 34.195657  
2002-03-25 10:23:35 51°34.007 2°23.591 9.687816 3.664725 34.20087  
2002-03-25 10:24:35 51°34.249 2°23.657 9.803598 3.664224 34.203556  
2002-03-25 10:25:35 51°34.491 2°23.72 9.907434 3.664124 34.205672  
2002-03-25 10:26:35 51°34.733 2°23.787 8.854999 3.664024 34.212527  
2002-03-25 10:27:35 51°34.975 2°23.846 8.92909 3.662921 34.208968  
2002-03-25 10:28:35 51°35.216 2°23.91 8.994904 3.662922 34.210548  
2002-03-25 10:29:35 51°35.454 2°24.014 8.948493 3.66222 34.213527  
2002-03-25 10:30:35 51°35.691 2°24.126 8.865596 3.66192 34.216724  
2002-03-25 10:31:35 51°35.926 2°24.256 8.874472 3.66192 34.219886  
2002-03-25 10:32:35 51°36.16 2°24.381 8.887165 3.663222 34.224738  
2002-03-25 10:33:35 51°36.395 2°24.517 8.939722 3.665527 34.233683  
2002-03-25 10:34:35 51°36.626 2°24.666 8.892079 3.666228 34.233862  
2002-03-25 10:35:35 51°36.856 2°24.825 8.889026 3.665627 34.234725  
2002-03-25 10:36:35 51°37.085 2°24.987 8.859438 3.666028 34.23573  
2002-03-25 10:37:35 51°37.311 2°25.16 8.904053 3.666729 34.242231  
2002-03-25 10:38:35 51°37.54 2°25.323 8.864498 3.667531 34.245031  
2002-03-25 10:39:35 51°37.766 2°25.493 8.868984 3.668533 34.251494  
2002-03-25 10:40:35 51°37.992 2°25.665 8.869939 3.668934 34.254869  
2002-03-25 10:41:34 51°38.212 2°25.848 8.909395 3.670136 34.261833  
2002-03-25 10:42:35 51°38.438 2°26.036 9.692293 3.669735 34.256086  
2002-03-25 10:43:35 51°38.661 2°26.22 9.996472 3.669836 34.259499  
2002-03-25 10:44:34 51°38.877 2°26.412 9.612228 3.670036 34.260791  
2002-03-25 10:45:35 51°39.091 2°26.638 9.757668 3.670236 34.262874  
2002-03-25 10:46:35 51°39.306 2°26.848 9.638031 3.670036 34.267117  
2002-03-25 10:47:34 51°39.517 2°27.058 9.566493 3.670437 34.269701  
2002-03-25 10:48:34 51°39.732 2°27.271 9.640154 3.671038 34.277533  
2002-03-25 10:49:35 51°39.957 2°27.473 9.487644 3.671038 34.279907  
2002-03-25 10:50:35 51°40.163 2°27.706 9.87107 3.67214 34.287408  
2002-03-25 10:51:35 51°40.385 2°27.905 9.805574 3.672441 34.289742  
2002-03-25 10:52:35 51°40.599 2°28.121 9.841645 3.673744 34.29616  
2002-03-25 10:53:34 51°40.804 2°28.342 9.689937 3.675547 34.313323  
2002-03-25 10:54:34 51°41.018 2°28.56 9.619777 3.676349 34.323239  
2002-03-25 10:55:35 51°41.237 2°28.77 10.299799 3.677752 34.322775  
2002-03-25 10:56:35 51°41.451 2°28.982 10.214213 3.680157 34.33193  
2002-03-25 10:57:35 51°41.667 2°29.196 9.319705 3.679255 34.336018  
2002-03-25 10:58:35 51°41.882 2°29.407 9.692529 3.678954 34.337645  
2002-03-25 10:59:35 51°42.096 2°29.618 9.617512 3.678353 34.338526  
2002-03-25 11:00:35 51°42.309 2°29.834 9.882348 3.678754 34.342692  
2002-03-25 11:01:35 51°42.524 2°30.044 9.566446 3.678654 34.345612  
2002-03-25 11:02:35 51°42.738 2°30.256 9.843244 3.678554 34.346155  
2002-03-25 11:03:35 51°42.951 2°30.469 9.879858 3.679255 34.348692  
2002-03-25 11:04:35 51°43.101 2°30.768 9.794801 3.679656 34.356821  
2002-03-25 11:05:35 51°43.028 2°31.095 9.908749 3.679656 34.359992  
2002-03-25 11:06:35 51°42.878 2°31.361 9.798612 3.679556 34.362915  
2002-03-25 11:07:35 51°42.733 2°31.639 9.722021 3.680658 34.365653  
2002-03-25 11:08:35 51°42.584 2°31.909 8.928661 3.680057 34.371298  
2002-03-25 11:09:35 51°42.437 2°32.184 8.843446 3.678153 34.364984  
2002-03-25 11:10:34 51°42.294 2°32.456 8.922319 3.67655 34.35148  
2002-03-25 11:11:35 51°42.147 2°32.736 8.848936 3.675448 34.337635  
2002-03-25 11:12:35 51°42.001 2°33.009 8.850178 3.675447 34.335256  
2002-03-25 11:13:35 51°41.862 2°33.295 8.892986 3.674746 34.328754  
2002-03-25 11:14:35 51°41.721 2°33.575 8.927278 3.675147 34.330544  
2002-03-25 11:15:35 51°41.575 2°33.847 8.978421 3.673944 34.329136  
2002-03-25 11:16:35 51°41.432 2°34.122 8.884875 3.671239 34.317637  
2002-03-25 11:17:35 51°41.288 2°34.396 8.839865 3.669135 34.310011  
2002-03-25 11:18:35 51°41.151 2°34.679 8.837 3.667632 34.296743  
2002-03-25 11:19:35 51°41.036 2°34.993 8.805813 3.665628 34.283015  
2002-03-25 11:20:35 51°40.939 2°35.328 8.924226 3.665227 34.274086  
2002-03-25 11:21:35 51°40.845 2°35.668 8.802994 3.664826 34.265952  
2002-03-25 11:22:35 51°40.747 2°36.006 8.842443 3.663824 34.259483  
2002-03-25 11:23:35 51°40.659 2°36.358 8.796783 3.663223 34.257186  
2002-03-25 11:24:35 51°40.567 2°36.705 8.83509 3.662321 34.251758  
2002-03-25 11:25:35 51°40.476 2°37.049 8.874186 3.661519 34.241829  
2002-03-25 11:26:35 51°40.385 2°37.391 8.794681 3.66172 34.243123  
2002-03-25 11:27:35 51°40.296 2°37.734 9.87436 3.661118 34.240032  
2002-03-25 11:28:35 51°40.208 2°38.079 10.041156 3.659816 34.229638  
2002-03-25 11:29:35 51°40.12 2°38.424 9.823495 3.660317 34.223771  
2002-03-25 11:30:35 51°40.034 2°38.769 9.981555 3.661218 34.221288  
2002-03-25 11:31:35 51°39.949 2°39.115 9.645718 3.660617 34.222943  
2002-03-25 11:32:35 51°39.862 2°39.461 9.744203 3.657912 34.217732  
2002-03-25 11:33:35 51°39.775 2°39.804 9.813947 3.656208 34.20791  
2002-03-25 11:34:35 51°39.69 2°40.148 9.756303 3.655006 34.208847  
2002-03-25 11:35:35 51°39.603 2°40.49 10.175354 3.653804 34.208993  
2002-03-25 11:36:35 51°39.516 2°40.832 9.709774 3.652501 34.200171  
2002-03-25 11:37:35 51°39.428 2°41.174 9.516379 3.650397 34.180617  
2002-03-25 11:38:35 51°39.339 2°41.52 9.50792 3.648693 34.164448  
2002-03-25 11:39:35 51°39.249 2°41.865 9.939458 3.646589 34.147266  
2002-03-25 11:40:35 51°39.158 2°42.208 9.711988 3.646288 34.137805  
2002-03-25 11:41:34 51°39.07 2°42.544 10.02128 3.646088 34.134135  
2002-03-25 11:42:35 51°38.976 2°42.89 9.685366 3.645888 34.131257  
2002-03-25 11:43:35 51°38.886 2°43.229 9.873514 3.646489 34.131986  
2002-03-25 11:44:35 51°38.797 2°43.57 9.641238 3.644685 34.113988  
2002-03-25 11:45:35 51°38.707 2°43.91 9.801528 3.643082 34.097287  
2002-03-25 11:46:35 51°38.619 2°44.25 9.762893 3.64208 34.082904  
2002-03-25 11:47:35 51°38.529 2°44.59 9.674337 3.640477 34.073309  
2002-03-25 11:48:35 51°38.44 2°44.929 9.713448 3.638473 34.057958  
2002-03-25 11:49:35 51°38.352 2°45.269 9.636003 3.638072 34.049839  
2002-03-25 11:50:35 51°38.262 2°45.609 9.825564 3.637771 34.047497  
2002-03-25 11:51:35 51°38.157 2°45.931 9.745568 3.636969 34.042302  
2002-03-25 11:52:35 51°37.966 2°46.039 9.63289 3.636569 34.039704  
2002-03-25 11:53:35 51°37.765 2°45.965 8.736745 3.635667 34.027946  
2002-03-25 11:54:35 51°37.569 2°45.864 8.774849 3.634464 34.016999  
2002-03-25 11:55:35 51°37.374 2°45.759 8.844592 3.633062 34.002389  
2002-03-25 11:56:35 51°37.177 2°45.652 8.716226 3.630256 33.981832  
2002-03-25 11:57:35 51°36.982 2°45.545 8.957454 3.625346 33.936989  
2002-03-25 11:58:35 51°36.786 2°45.437 8.684645 3.629955 33.957455  
2002-03-25 11:59:35 51°36.601 2°45.29 8.678758 3.623042 33.937371  
2002-03-25 12:00:35 51°36.553 2°44.977 8.667987 3.622541 33.936085  
2002-03-25 12:01:34 51°36.688 2°44.7 8.655108 3.620837 33.931714  
2002-03-25 12:02:35 51°36.847 2°44.421 8.695844 3.620437 33.918876  
2002-03-25 12:03:35 51°37.002 2°44.147 8.710963 3.623543 33.931574  
2002-03-25 12:04:35 51°37.155 2°43.867 8.72651 3.626949 33.946606  
2002-03-25 12:05:35 51°37.302 2°43.579 8.729284 3.630957 33.967885  
2002-03-25 12:06:35 51°37.451 2°43.293 8.757545 3.63226 33.979872  
2002-03-25 12:07:35 51°37.596 2°43.007 8.76266 3.634865 33.998333  
2002-03-25 12:08:35 51°37.743 2°42.722 8.756684 3.636468 34.004  
2002-03-25 12:09:34 51°37.887 2°42.442 8.752286 3.635867 34.004039  
2002-03-25 12:10:35 51°38.036 2°42.15 8.759696 3.636869 34.015255  
2002-03-25 12:11:35 51°38.146 2°41.85 8.754581 3.639574 34.033961  
2002-03-25 12:12:35 51°38.116 2°41.517 8.756063 3.639374 34.037389  
2002-03-25 12:13:35 51°38.1 2°41.171 8.757545 3.640476 34.043346  
2002-03-25 12:14:35 51°38.086 2°40.825 8.817898 3.640977 34.047772  
2002-03-25 12:15:35 51°38.073 2°40.48 8.886736 3.64238 34.045828  
2002-03-25 12:16:35 51°38.061 2°40.134 8.943917 3.644183 34.033108  
2002-03-25 12:17:35 51°38.008 2°39.812 8.900141 3.649694 34.044776  
2002-03-25 12:18:35 51°37.848 2°39.612 8.868936 3.650195 34.054691  
2002-03-25 12:19:35 51°37.662 2°39.467 8.808679 3.64749 34.059609  
2002-03-25 12:20:35 51°37.471 2°39.332 8.793486 3.645987 34.047921  
2002-03-25 12:21:35 51°37.282 2°39.191 8.861013 3.644283 34.044375  
2002-03-25 12:22:35 51°37.089 2°39.068 8.871991 3.645185 34.031729  
2002-03-25 12:23:35 51°36.89 2°38.97 8.82019 3.648191 34.01348  
2002-03-25 12:24:35 51°36.691 2°38.864 8.823343 3.642279 34.014894  
2002-03-25 12:25:35 51°36.492 2°38.756 8.848554 3.63737 33.997649  
2002-03-25 12:26:35 51°36.291 2°38.652 8.738754 3.634564 33.978686  
2002-03-25 12:27:35 51°36.09 2°38.545 8.759553 3.632059 33.974639  
2002-03-25 12:28:35 51°35.888 2°38.441 8.753194 3.63236 33.971475  
2002-03-25 12:29:35 51°35.686 2°38.338 8.822722 3.632961 33.965938  
2002-03-25 12:30:35 51°35.484 2°38.233 8.802898 3.636568 33.974382  
2002-03-25 12:31:35 51°35.283 2°38.13 8.852278 3.638071 33.976655  
2002-03-25 12:32:35 51°35.081 2°38.093 8.86235 3.64278 33.989475  
2002-03-25 12:33:35 51°34.968 2°38.369 8.787705 3.640576 33.993264  
2002-03-25 12:34:35 51°34.863 2°38.688 8.785698 3.63757 33.984799  
2002-03-25 12:35:35 51°34.754 2°39.008 8.809825 3.637069 33.978019  
2002-03-25 12:36:35 51°34.645 2°39.328 8.795684 3.635065 33.974466  
2002-03-25 12:37:35 51°34.534 2°39.647 8.768396 3.635967 33.975986  
2002-03-25 12:38:35 51°34.424 2°39.962 8.767249 3.632861 33.958609  
2002-03-25 12:39:35 51°34.323 2°40.286 8.76419 3.63246 33.947372  
2002-03-25 12:40:35 51°34.219 2°40.613 8.764429 3.632159 33.946602  
2002-03-25 12:41:35 51°34.119 2°40.944 8.790715 3.631257 33.938008  
2002-03-25 12:42:35 51°34.018 2°41.275 8.799315 3.633261 33.933733  
2002-03-25 12:43:35 51°33.919 2°41.606 8.742149 3.633762 33.939724  
2002-03-25 12:44:35 51°33.819 2°41.936 8.720531 3.628151 33.935539  
2002-03-25 12:45:35 51°33.72 2°42.264 8.675311 3.624344 33.932058  
2002-03-25 12:46:35 51°33.621 2°42.591 8.66545 3.619334 33.911321  
2002-03-25 12:47:35 51°33.503 2°42.895 8.654677 3.618232 33.899045  
2002-03-25 12:48:35 51°33.304 2°42.975 8.648787 3.616529 33.887581  
2002-03-25 12:49:35 51°33.101 2°42.879 8.640454 3.614324 33.874823  
2002-03-25 12:50:35 51°32.901 2°42.759 8.635999 3.613222 33.871195  
2002-03-25 12:51:35 51°32.7 2°42.64 8.634898 3.612321 33.868869  
2002-03-25 12:52:35 51°32.498 2°42.521 8.624359 3.61182 33.866003  
2002-03-25 12:53:35 51°32.294 2°42.401 8.639352 3.611719 33.860239  
2002-03-25 12:54:35 51°32.092 2°42.279 8.640693 3.61202 33.857869  
2002-03-25 12:55:35 51°31.892 2°42.154 8.629341 3.61212 33.856556  
2002-03-25 12:56:35 51°31.691 2°42.018 8.67421 3.61212 33.857342  
2002-03-25 12:57:35 51°31.489 2°41.886 8.652618 3.612321 33.857859  
2002-03-25 12:58:35 51°31.288 2°41.754 8.692972 3.612721 33.85575  
2002-03-25 12:59:35 51°31.086 2°41.622 8.661763 3.61212 33.850268  
2002-03-25 13:00:35 51°30.885 2°41.49 8.659034 3.61222 33.841885  
2002-03-25 13:01:35 51°30.684 2°41.358 8.666024 3.610617 33.824391  
2002-03-25 13:02:34 51°30.485 2°41.228 9.852834 3.609214 33.814481  
2002-03-25 13:03:35 51°30.36 2°40.958 9.574708 3.615526 33.809661  
2002-03-25 13:04:35 51°30.319 2°40.605 9.7491 3.608713 33.803768  
2002-03-25 13:05:35 51°30.281 2°40.249 9.908279 3.60731 33.796994  
2002-03-25 13:06:35 51°30.258 2°39.888 9.565785 3.608212 33.801685  
2002-03-25 13:07:35 51°30.24 2°39.523 9.841692 3.609114 33.807944  
2002-03-25 13:08:35 51°30.213 2°39.161 9.878918 3.611418 33.82725  
2002-03-25 13:09:35 51°30.181 2°38.801 9.674337 3.613623 33.846294  
2002-03-25 13:10:35 51°30.151 2°38.443 9.773719 3.61723 33.857178  
2002-03-25 13:11:35 51°30.126 2°38.084 9.794095 3.624744 33.876555  
2002-03-25 13:12:35 51°30.114 2°37.721 10.0941 3.627951 33.905193  
2002-03-25 13:13:35 51°30.105 2°37.356 9.814888 3.628752 33.915097  
2002-03-25 13:14:35 51°30.098 2°36.991 9.540756 3.627851 33.917489  
2002-03-25 13:15:35 51°30.09 2°36.626 10.039938 3.62755 33.917502  
2002-03-25 13:16:35 51°30.085 2°36.26 9.427107 3.628251 33.923229  
2002-03-25 13:17:35 51°30.043 2°35.906 10.07424 3.629454 33.931811  
2002-03-25 13:18:35 51°29.984 2°35.562 9.583063 3.634263 33.9465  
2002-03-25 13:19:35 51°29.908 2°35.226 9.953024 3.641978 33.977231  
2002-03-25 13:20:36 51°29.83 2°34.883 10.126595 3.646788 34.000492  
2002-03-25 13:21:36 51°29.752 2°34.543 8.923654 3.652399 34.017153  
2002-03-25 13:22:36 51°29.633 2°34.254 9.006525 3.652599 34.030201  
2002-03-25 13:23:36 51°29.419 2°34.18 8.98652 3.653902 34.034301  
2002-03-25 13:24:36 51°29.2 2°34.223 8.936099 3.655305 34.03552  
2002-03-25 13:25:36 51°28.997 2°34.375 9.045518 3.654603 34.028251  
2002-03-25 13:26:36 51°28.786 2°34.499 8.986473 3.655004 34.024573  
2002-03-25 13:27:35 51°28.584 2°34.63 8.91054 3.650194 34.013885  
2002-03-25 13:28:35 51°28.38 2°34.767 8.881105 3.646888 34.002316  
2002-03-25 13:29:35 51°28.175 2°34.904 8.948589 3.640475 33.974956  
2002-03-25 13:30:36 51°27.966 2°35.042 8.906008 3.638271 33.960688  
2002-03-25 13:31:36 51°27.758 2°35.171 8.892365 3.636568 33.951621  
2002-03-25 13:32:36 51°27.547 2°35.291 8.964364 3.634363 33.939697  
2002-03-25 13:33:36 51°27.336 2°35.415 8.919935 3.632459 33.930107  
2002-03-25 13:34:36 51°27.123 2°35.536 8.811354 3.630556 33.91424  
2002-03-25 13:35:36 51°26.906 2°35.631 8.822961 3.62765 33.899714  
2002-03-25 13:36:36 51°26.684 2°35.71 8.849223 3.626848 33.8953  
2002-03-25 13:37:36 51°26.463 2°35.783 9.847569 3.625245 33.887253  
2002-03-25 13:38:36 51°26.241 2°35.853 9.98634 3.623742 33.879462  
2002-03-25 13:39:35 51°26.023 2°35.925 9.816863 3.623041 33.874518  
2002-03-25 13:40:36 51°25.798 2°35.999 9.750088 3.623943 33.879978  
2002-03-25 13:41:36 51°25.579 2°36.071 9.732148 3.624343 33.857505  
2002-03-25 13:42:36 51°25.359 2°36.145 10.072319 3.626948 33.873618  
2002-03-25 13:43:36 51°25.138 2°36.218 9.603263 3.625045 33.857749  
2002-03-25 13:44:36 51°24.916 2°36.284 10.092461 3.62294 33.844491  
2002-03-25 13:45:36 51°24.695 2°36.344 10.146955 3.623541 33.831963  
2002-03-25 13:46:36 51°24.473 2°36.404 10.007962 3.623842 33.804617  
2002-03-25 13:47:36 51°24.252 2°36.463 10.114376 3.623741 33.795775  
2002-03-25 13:48:36 51°24.028 2°36.523 9.865196 3.624442 33.785897  
2002-03-25 13:49:36 51°23.806 2°36.591 9.982352 3.622439 33.783039  
2002-03-25 13:50:36 51°23.584 2°36.659 10.096348 3.62314 33.788757  
2002-03-25 13:51:36 51°23.364 2°36.729 9.514016 3.625745 33.806425  
2002-03-25 13:52:36 51°23.145 2°36.801 10.013449 3.623942 33.798634  
2002-03-25 13:53:36 51°22.928 2°36.888 10.171705 3.62294 33.789798  
2002-03-25 13:54:36 51°22.712 2°36.989 9.975315 3.622839 33.78018  
2002-03-25 13:55:36 51°22.523 2°37.175 9.932463 3.622138 33.772905  
2002-03-25 13:56:36 51°22.352 2°37.404 9.745239 3.623039 33.751106  
2002-03-25 13:57:36 51°22.194 2°37.655 9.67806 3.619933 33.726691  
2002-03-25 13:58:36 51°22.048 2°37.922 9.753619 3.616026 33.707176  
2002-03-25 13:59:36 51°21.909 2°38.201 9.81898 3.615825 33.697323  
2002-03-25 14:00:36 51°21.768 2°38.478 9.721786 3.616526 33.685168  
2002-03-25 14:01:35 51°21.646 2°38.769 10.036422 3.61833 33.688324  
2002-03-25 14:02:36 51°21.533 2°39.082 10.140309 3.621335 33.689188  
2002-03-25 14:03:36 51°21.423 2°39.393 10.232629 3.627247 33.695313  
2002-03-25 14:04:35 51°21.317 2°39.698 9.01224 3.629852 33.709072  
2002-03-25 14:05:36 51°21.209 2°40.014 8.93114 3.627547 33.715464  
2002-03-25 14:06:36 51°21.123 2°40.338 9.030095 3.618731 33.697911  
2002-03-25 14:07:36 51°21.058 2°40.675 9.10565 3.621836 33.674994  
2002-03-25 14:08:35 51°20.992 2°41.006 8.967128 3.629351 33.691515  
2002-03-25 14:09:35 51°20.924 2°41.341 8.915786 3.621135 33.684787  
2002-03-25 14:10:36 51°20.852 2°41.679 8.965556 3.618329 33.655755  
2002-03-25 14:11:36 51°20.766 2°42.001 9.019811 3.617227 33.639705  
2002-03-25 14:12:36 51°20.675 2°42.316 8.879387 3.616425 33.634509  
2002-03-25 14:13:35 51°20.587 2°42.628 8.992522 3.612117 33.630964  
2002-03-25 14:14:36 51°20.494 2°42.953 8.91507 3.609412 33.601398  
2002-03-25 14:15:36 51°20.403 2°43.276 8.941724 3.60831 33.598502  
2002-03-25 14:16:36 51°20.311 2°43.598 8.950352 3.611917 33.612621  
2002-03-25 14:17:36 51°20.22 2°43.922 9.050277 3.610414 33.611773  
2002-03-25 14:18:35 51°20.133 2°44.242 9.067836 3.621034 33.61181  
2002-03-25 14:19:36 51°20.041 2°44.573 9.069597 3.620032 33.575252  
2002-03-25 14:20:36 51°19.951 2°44.896 10.10061 3.609812 33.52598  
2002-03-25 14:21:36 51°19.86 2°45.217 10.064166 3.602097 33.496338  
2002-03-25 14:22:36 51°19.769 2°45.533 10.228656 3.611214 33.521981  
2002-03-25 14:23:35 51°19.683 2°45.84 10.229171 3.612417 33.540559  
2002-03-25 14:24:36 51°19.591 2°46.159 10.183165 3.609712 33.535736  
2002-03-25 14:25:36 51°19.5 2°46.476 10.144334 3.610413 33.520634  
2002-03-25 14:26:36 51°19.409 2°46.793 10.005149 3.600794 33.487492  
2002-03-25 14:27:35 51°19.32 2°47.103 9.742366 3.594582 33.424785  
2002-03-25 14:28:35 51°19.227 2°47.418 9.972875 3.592478 33.378435  
2002-03-25 14:29:36 51°19.132 2°47.735 9.947439 3.591175 33.331238  
2002-03-25 14:30:36 51°19.039 2°48.046 9.884462 3.586565 33.253872  
2002-03-25 14:31:36 51°18.945 2°48.356 9.854902 3.579151 33.220154  
2002-03-25 14:32:35 51°18.848 2°48.658 10.142181 3.588168 33.250554  
2002-03-25 14:33:36 51°18.745 2°48.963 10.225712 3.601594 33.331593  
2002-03-25 14:34:36 51°18.636 2°49.254 10.1667 3.594481 33.32937  
2002-03-25 14:35:36 51°18.526 2°49.548 10.208369 3.588369 33.303815  
2002-03-25 14:36:36 51°18.407 2°49.842 9.765153 3.586966 33.282455  
2002-03-25 14:37:36 51°18.289 2°50.135 9.944434 3.588269 33.276781  
2002-03-25 14:38:36 51°18.159 2°50.416 10.019967 3.590072 33.279333  
2002-03-25 14:39:36 51°18.03 2°50.698 10.281589 3.590873 33.280722  
2002-03-25 14:40:36 51°17.902 2°50.979 10.385693 3.592777 33.268286  
2002-03-25 14:41:35 51°17.777 2°51.251 9.950302 3.593477 33.219173  
2002-03-25 14:42:35 51°17.649 2°51.524 9.93467 3.582456 33.134709  
2002-03-25 14:43:36 51°17.517 2°51.806 10.287473 3.570633 33.051756  
2002-03-25 14:44:36 51°17.373 2°52.066 9.844936 3.565924 32.996495  
2002-03-25 14:45:36 51°17.192 2°52.268 10.063885 3.560714 32.961799  
2002-03-25 14:46:36 51°16.993 2°52.424 10.189993 3.564421 32.962151  
2002-03-25 14:47:36 51°16.797 2°52.591 9.281304 3.561715 32.856841  
2002-03-25 14:48:36 51°16.598 2°52.76 9.382899 3.557506 32.738174  
2002-03-25 14:49:36 51°16.398 2°52.926 9.214689 3.5547 32.693096  
2002-03-25 14:50:36 51°16.198 2°53.087 9.287042 3.547186 32.683292  
2002-03-25 14:51:36 51°15.999 2°53.25 9.464618 3.545983 32.608474  
2002-03-25 14:52:36 51°15.8 2°53.414 9.509385 3.543176 32.424049  
2002-03-25 14:53:36 51°15.6 2°53.577 9.496861 3.529049 32.281918  
2002-03-25 14:54:36 51°15.419 2°53.722 9.468685 3.523138 32.220397  
2002-03-25 14:55:35 51°15.296 2°53.824 9.364004 3.514422 32.159547  
2002-03-25 14:56:35 51°15.179 2°53.937 9.438982 3.505607 32.175011  
2002-03-25 14:57:36 51°15.065 2°54.069 9.447403 3.499696 32.157206  
2002-03-25 14:58:36 51°14.947 2°54.213 9.539717 3.498895 32.126335  
2002-03-25 14:59:36 51°14.82 2°54.379 9.400557 3.500096 32.104971  
2002-03-25 15:00:35 51°14.686 2°54.559 9.424694 3.500798 32.107004  
2002-03-25 15:01:36 51°14.533 2°54.78 9.389669 3.494385 32.025688  
2002-03-25 15:02:36 51°14.397 2°55.019 9.459936 3.491079 31.926758  
2002-03-25 15:03:35 51°14.273 2°55.249 10.706576 3.445997 31.493708  
2002-03-25 15:04:40 51°14.171 2°55.382 10.720587 3.258289 29.585204  
2002-03-25 15:05:41 51°14.089 2°55.44 10.671211 3.111887 28.080239  
2002-03-25 15:06:41 51°13.99 2°55.511 10.767932 3.07354 27.681911  
2002-03-25 15:07:41 51°13.854 2°55.614 10.944305 2.936994 26.283864  
2002-03-25 15:08:40 51°13.778 2°55.674 13.726169 2.860627 25.448415  
2002-03-25 15:09:41 51°13.735 2°55.75 13.254133 0.042385 0.28903  
2002-03-25 15:10:41 51°13.708 2°55.817 14.05785 0.042385 0.288955  
2002-03-25 15:11:41 51°13.696 2°55.871 13.20554 0.041793 0.284592